sensor_id;sensor_type;location;lat;lon;timestamp;temperature;humidity
18733;DHT22;9495;51.210;2.934;2022-09-09T00:01:07;18.20;99.90
18733;DHT22;9495;51.210;2.934;2022-09-09T00:03:43;18.10;99.90
18733;DHT22;9495;51.210;2.934;2022-09-09T00:06:21;18.40;99.90
18733;DHT22;9495;51.210;2.934;2022-09-09T00:08:58;18.50;99.90
18733;DHT22;9495;51.210;2.934;2022-09-09T00:11:35;18.50;99.90
18733;DHT22;9495;51.210;2.934;2022-09-09T00:14:11;18.30;99.90
18733;DHT22;9495;51.210;2.934;2022-09-09T00:16:46;18.40;99.90
18733;DHT22;9495;51.210;2.934;2022-09-09T00:19:21;18.20;99.90
18733;DHT22;9495;51.210;2.934;2022-09-09T00:21:57;18.70;99.90
18733;DHT22;9495;51.210;2.934;2022-09-09T00:24:35;18.50;99.90
18733;DHT22;9495;51.210;2.934;2022-09-09T00:27:08;18.20;99.90
18733;DHT22;9495;51.210;2.934;2022-09-09T00:29:43;18.50;99.90
18733;DHT22;9495;51.210;2.934;2022-09-09T00:32:15;18.00;99.90
18733;DHT22;9495;51.210;2.934;2022-09-09T00:34:48;18.10;99.90
18733;DHT22;9495;51.210;2.934;2022-09-09T00:37:19;18.10;99.90
18733;DHT22;9495;51.210;2.934;2022-09-09T00:39:49;17.90;99.90
18733;DHT22;9495;51.210;2.934;2022-09-09T00:42:23;18.30;99.90
18733;DHT22;9495;51.210;2.934;2022-09-09T00:44:55;18.20;99.90
18733;DHT22;9495;51.210;2.934;2022-09-09T00:47:40;17.90;99.90
18733;DHT22;9495;51.210;2.934;2022-09-09T00:50:25;17.80;99.90
18733;DHT22;9495;51.210;2.934;2022-09-09T00:53:05;17.80;99.90
18733;DHT22;9495;51.210;2.934;2022-09-09T00:55:41;17.70;99.90
18733;DHT22;9495;51.210;2.934;2022-09-09T00:58:12;17.90;99.90
18733;DHT22;9495;51.210;2.934;2022-09-09T01:00:43;18.00;99.90
18733;DHT22;9495;51.210;2.934;2022-09-09T01:03:20;17.80;99.90
18733;DHT22;9495;51.210;2.934;2022-09-09T01:05:59;18.10;99.90
18733;DHT22;9495;51.210;2.934;2022-09-09T01:08:45;18.30;99.90
18733;DHT22;9495;51.210;2.934;2022-09-09T01:11:22;17.90;99.90
18733;DHT22;9495;51.210;2.934;2022-09-09T01:13:56;18.20;99.90
18733;DHT22;9495;51.210;2.934;2022-09-09T01:16:29;18.20;99.90
18733;DHT22;9495;51.210;2.934;2022-09-09T01:18:59;18.00;99.90
18733;DHT22;9495;51.210;2.934;2022-09-09T01:21:37;17.90;99.90
18733;DHT22;9495;51.210;2.934;2022-09-09T01:24:19;17.70;99.90
18733;DHT22;9495;51.210;2.934;2022-09-09T01:26:52;17.90;99.90
18733;DHT22;9495;51.210;2.934;2022-09-09T01:29:22;17.80;99.90
18733;DHT22;9495;51.210;2.934;2022-09-09T01:31:53;18.00;99.90
18733;DHT22;9495;51.210;2.934;2022-09-09T01:34:23;18.30;99.90
18733;DHT22;9495;51.210;2.934;2022-09-09T01:36:57;18.40;99.90
18733;DHT22;9495;51.210;2.934;2022-09-09T01:39:27;18.10;99.90
18733;DHT22;9495;51.210;2.934;2022-09-09T01:41:57;18.10;99.90
18733;DHT22;9495;51.210;2.934;2022-09-09T01:44:25;18.30;99.90
18733;DHT22;9495;51.210;2.934;2022-09-09T01:46:54;18.00;99.90
18733;DHT22;9495;51.210;2.934;2022-09-09T01:49:23;18.20;99.90
18733;DHT22;9495;51.210;2.934;2022-09-09T01:51:53;18.40;99.90
18733;DHT22;9495;51.210;2.934;2022-09-09T01:54:23;18.50;99.90
18733;DHT22;9495;51.210;2.934;2022-09-09T01:57:01;18.40;99.90
18733;DHT22;9495;51.210;2.934;2022-09-09T01:59:44;18.10;99.90
18733;DHT22;9495;51.210;2.934;2022-09-09T02:02:18;18.20;99.90
18733;DHT22;9495;51.210;2.934;2022-09-09T02:04:48;18.60;99.90
18733;DHT22;9495;51.210;2.934;2022-09-09T02:07:30;18.70;99.90
18733;DHT22;9495;51.210;2.934;2022-09-09T02:10:12;18.70;99.90
18733;DHT22;9495;51.210;2.934;2022-09-09T02:12:49;18.50;99.90
18733;DHT22;9495;51.210;2.934;2022-09-09T02:15:23;18.30;99.90
18733;DHT22;9495;51.210;2.934;2022-09-09T02:17:55;18.60;99.90
18733;DHT22;9495;51.210;2.934;2022-09-09T02:20:26;18.50;99.90
18733;DHT22;9495;51.210;2.934;2022-09-09T02:23:01;18.70;99.90
18733;DHT22;9495;51.210;2.934;2022-09-09T02:25:30;18.50;99.90
18733;DHT22;9495;51.210;2.934;2022-09-09T02:27:59;18.70;99.90
18733;DHT22;9495;51.210;2.934;2022-09-09T02:30:29;18.50;99.90
18733;DHT22;9495;51.210;2.934;2022-09-09T02:33:03;18.50;99.90
18733;DHT22;9495;51.210;2.934;2022-09-09T02:35:35;19.00;99.90
18733;DHT22;9495;51.210;2.934;2022-09-09T02:38:07;18.90;99.90
18733;DHT22;9495;51.210;2.934;2022-09-09T02:40:36;19.30;99.90
18733;DHT22;9495;51.210;2.934;2022-09-09T02:43:05;19.00;99.90
18733;DHT22;9495;51.210;2.934;2022-09-09T02:45:39;18.80;99.90
18733;DHT22;9495;51.210;2.934;2022-09-09T02:48:14;18.90;99.90
18733;DHT22;9495;51.210;2.934;2022-09-09T02:50:54;18.30;99.90
18733;DHT22;9495;51.210;2.934;2022-09-09T02:53:32;18.30;99.90
18733;DHT22;9495;51.210;2.934;2022-09-09T02:56:07;18.00;99.90
18733;DHT22;9495;51.210;2.934;2022-09-09T02:58:39;17.90;99.90
18733;DHT22;9495;51.210;2.934;2022-09-09T03:01:07;17.90;99.90
18733;DHT22;9495;51.210;2.934;2022-09-09T03:03:36;17.80;99.90
18733;DHT22;9495;51.210;2.934;2022-09-09T03:06:05;18.20;99.90
18733;DHT22;9495;51.210;2.934;2022-09-09T03:08:33;18.20;99.90
18733;DHT22;9495;51.210;2.934;2022-09-09T03:11:02;18.40;99.90
18733;DHT22;9495;51.210;2.934;2022-09-09T03:13:31;18.40;99.90
18733;DHT22;9495;51.210;2.934;2022-09-09T03:16:01;18.30;99.90
18733;DHT22;9495;51.210;2.934;2022-09-09T03:18:31;18.70;99.90
18733;DHT22;9495;51.210;2.934;2022-09-09T03:20:59;18.20;99.90
18733;DHT22;9495;51.210;2.934;2022-09-09T03:23:28;18.00;99.90
18733;DHT22;9495;51.210;2.934;2022-09-09T03:25:56;18.00;99.90
18733;DHT22;9495;51.210;2.934;2022-09-09T03:28:25;18.20;99.90
18733;DHT22;9495;51.210;2.934;2022-09-09T03:31:00;18.20;99.90
18733;DHT22;9495;51.210;2.934;2022-09-09T03:33:29;18.30;99.90
18733;DHT22;9495;51.210;2.934;2022-09-09T03:35:58;18.20;99.90
18733;DHT22;9495;51.210;2.934;2022-09-09T03:38:26;18.20;99.90
18733;DHT22;9495;51.210;2.934;2022-09-09T03:40:56;18.70;99.90
18733;DHT22;9495;51.210;2.934;2022-09-09T03:43:25;18.40;99.90
18733;DHT22;9495;51.210;2.934;2022-09-09T03:45:54;18.30;99.90
18733;DHT22;9495;51.210;2.934;2022-09-09T03:48:25;18.30;99.90
18733;DHT22;9495;51.210;2.934;2022-09-09T03:50:55;18.40;99.90
18733;DHT22;9495;51.210;2.934;2022-09-09T03:53:25;18.50;99.90
18733;DHT22;9495;51.210;2.934;2022-09-09T03:55:55;18.40;99.90
18733;DHT22;9495;51.210;2.934;2022-09-09T03:58:26;18.40;99.90
18733;DHT22;9495;51.210;2.934;2022-09-09T04:00:56;18.50;99.90
18733;DHT22;9495;51.210;2.934;2022-09-09T04:03:26;18.90;99.90
18733;DHT22;9495;51.210;2.934;2022-09-09T04:05:55;18.30;99.90
18733;DHT22;9495;51.210;2.934;2022-09-09T04:08:24;18.30;99.90
18733;DHT22;9495;51.210;2.934;2022-09-09T04:10:53;18.50;99.90
18733;DHT22;9495;51.210;2.934;2022-09-09T04:13:25;18.30;99.90
18733;DHT22;9495;51.210;2.934;2022-09-09T04:15:55;18.70;99.90
18733;DHT22;9495;51.210;2.934;2022-09-09T04:18:26;19.00;99.90
18733;DHT22;9495;51.210;2.934;2022-09-09T04:20:55;18.70;99.90
18733;DHT22;9495;51.210;2.934;2022-09-09T04:23:25;18.60;99.90
18733;DHT22;9495;51.210;2.934;2022-09-09T04:25:55;19.10;99.90
18733;DHT22;9495;51.210;2.934;2022-09-09T04:28:26;19.40;99.90
18733;DHT22;9495;51.210;2.934;2022-09-09T04:30:54;19.10;99.90
18733;DHT22;9495;51.210;2.934;2022-09-09T04:33:25;18.90;99.90
18733;DHT22;9495;51.210;2.934;2022-09-09T04:35:54;19.20;99.90
18733;DHT22;9495;51.210;2.934;2022-09-09T04:38:22;19.10;99.90
18733;DHT22;9495;51.210;2.934;2022-09-09T04:40:51;19.20;99.90
18733;DHT22;9495;51.210;2.934;2022-09-09T04:43:21;19.00;99.90
18733;DHT22;9495;51.210;2.934;2022-09-09T04:45:51;19.30;99.90
18733;DHT22;9495;51.210;2.934;2022-09-09T04:48:20;19.50;99.90
18733;DHT22;9495;51.210;2.934;2022-09-09T04:50:57;19.40;99.90
18733;DHT22;9495;51.210;2.934;2022-09-09T04:53:26;19.40;99.90
18733;DHT22;9495;51.210;2.934;2022-09-09T04:56:02;19.40;99.90
18733;DHT22;9495;51.210;2.934;2022-09-09T04:58:30;19.60;99.90
18733;DHT22;9495;51.210;2.934;2022-09-09T05:01:06;19.90;99.90
18733;DHT22;9495;51.210;2.934;2022-09-09T05:03:35;19.60;99.90
18733;DHT22;9495;51.210;2.934;2022-09-09T05:06:07;19.60;99.90
18733;DHT22;9495;51.210;2.934;2022-09-09T05:08:36;19.90;99.90
18733;DHT22;9495;51.210;2.934;2022-09-09T05:11:13;20.20;99.90
18733;DHT22;9495;51.210;2.934;2022-09-09T05:13:42;19.60;99.90
18733;DHT22;9495;51.210;2.934;2022-09-09T05:16:11;19.20;99.90
18733;DHT22;9495;51.210;2.934;2022-09-09T05:18:40;19.10;99.90
18733;DHT22;9495;51.210;2.934;2022-09-09T05:21:11;18.80;99.90
18733;DHT22;9495;51.210;2.934;2022-09-09T05:23:40;18.90;99.90
18733;DHT22;9495;51.210;2.934;2022-09-09T05:26:12;18.60;99.90
18733;DHT22;9495;51.210;2.934;2022-09-09T05:28:44;18.90;99.90
18733;DHT22;9495;51.210;2.934;2022-09-09T05:31:13;19.10;99.90
18733;DHT22;9495;51.210;2.934;2022-09-09T05:33:43;19.10;99.90
18733;DHT22;9495;51.210;2.934;2022-09-09T05:36:15;19.00;99.90
18733;DHT22;9495;51.210;2.934;2022-09-09T05:38:44;19.00;99.90
18733;DHT22;9495;51.210;2.934;2022-09-09T05:41:13;19.00;99.90
18733;DHT22;9495;51.210;2.934;2022-09-09T05:43:42;19.30;99.90
18733;DHT22;9495;51.210;2.934;2022-09-09T05:46:14;18.80;99.90
18733;DHT22;9495;51.210;2.934;2022-09-09T05:48:43;19.00;99.90
18733;DHT22;9495;51.210;2.934;2022-09-09T05:51:16;19.30;99.90
18733;DHT22;9495;51.210;2.934;2022-09-09T05:53:45;19.50;99.90
18733;DHT22;9495;51.210;2.934;2022-09-09T05:56:14;19.20;99.90
18733;DHT22;9495;51.210;2.934;2022-09-09T05:58:43;19.40;99.90
18733;DHT22;9495;51.210;2.934;2022-09-09T06:01:13;19.70;99.90
18733;DHT22;9495;51.210;2.934;2022-09-09T06:03:42;19.70;99.90
18733;DHT22;9495;51.210;2.934;2022-09-09T06:06:13;20.00;99.90
18733;DHT22;9495;51.210;2.934;2022-09-09T06:08:43;19.60;99.90
18733;DHT22;9495;51.210;2.934;2022-09-09T06:11:13;19.40;99.90
18733;DHT22;9495;51.210;2.934;2022-09-09T06:13:42;19.50;99.90
18733;DHT22;9495;51.210;2.934;2022-09-09T06:16:11;19.70;99.90
18733;DHT22;9495;51.210;2.934;2022-09-09T06:18:40;19.70;99.90
18733;DHT22;9495;51.210;2.934;2022-09-09T06:21:14;19.80;99.90
18733;DHT22;9495;51.210;2.934;2022-09-09T06:23:43;19.90;99.90
18733;DHT22;9495;51.210;2.934;2022-09-09T06:26:13;20.40;99.90
18733;DHT22;9495;51.210;2.934;2022-09-09T06:28:42;20.00;99.90
18733;DHT22;9495;51.210;2.934;2022-09-09T06:31:12;19.80;99.90
18733;DHT22;9495;51.210;2.934;2022-09-09T06:33:41;20.00;99.90
18733;DHT22;9495;51.210;2.934;2022-09-09T06:36:12;20.00;99.90
18733;DHT22;9495;51.210;2.934;2022-09-09T06:38:42;19.50;99.90
18733;DHT22;9495;51.210;2.934;2022-09-09T06:41:11;19.50;99.90
18733;DHT22;9495;51.210;2.934;2022-09-09T06:43:40;19.40;99.90
18733;DHT22;9495;51.210;2.934;2022-09-09T06:46:10;19.40;99.90
18733;DHT22;9495;51.210;2.934;2022-09-09T06:48:39;19.20;99.90
18733;DHT22;9495;51.210;2.934;2022-09-09T06:51:10;18.90;99.90
18733;DHT22;9495;51.210;2.934;2022-09-09T06:53:42;19.00;99.90
18733;DHT22;9495;51.210;2.934;2022-09-09T06:56:22;19.10;99.90
18733;DHT22;9495;51.210;2.934;2022-09-09T06:58:51;19.40;99.90
18733;DHT22;9495;51.210;2.934;2022-09-09T07:01:21;19.30;99.90
18733;DHT22;9495;51.210;2.934;2022-09-09T07:03:51;19.20;99.90
18733;DHT22;9495;51.210;2.934;2022-09-09T07:06:20;19.10;99.90
18733;DHT22;9495;51.210;2.934;2022-09-09T07:08:52;18.80;99.90
18733;DHT22;9495;51.210;2.934;2022-09-09T07:11:24;19.10;99.90
18733;DHT22;9495;51.210;2.934;2022-09-09T07:13:54;19.20;99.90
18733;DHT22;9495;51.210;2.934;2022-09-09T07:16:23;19.60;99.90
18733;DHT22;9495;51.210;2.934;2022-09-09T07:18:52;19.40;99.90
18733;DHT22;9495;51.210;2.934;2022-09-09T07:21:25;19.70;99.90
18733;DHT22;9495;51.210;2.934;2022-09-09T07:23:55;19.60;99.90
18733;DHT22;9495;51.210;2.934;2022-09-09T07:26:25;19.80;99.90
18733;DHT22;9495;51.210;2.934;2022-09-09T07:28:54;19.90;99.90
18733;DHT22;9495;51.210;2.934;2022-09-09T07:31:25;19.90;99.90
18733;DHT22;9495;51.210;2.934;2022-09-09T07:33:54;20.40;99.90
18733;DHT22;9495;51.210;2.934;2022-09-09T07:36:24;20.30;99.90
18733;DHT22;9495;51.210;2.934;2022-09-09T07:39:02;20.20;99.90
18733;DHT22;9495;51.210;2.934;2022-09-09T07:41:33;19.90;99.90
18733;DHT22;9495;51.210;2.934;2022-09-09T07:44:05;20.20;99.90
18733;DHT22;9495;51.210;2.934;2022-09-09T07:46:34;20.10;99.90
18733;DHT22;9495;51.210;2.934;2022-09-09T07:49:03;20.50;99.90
18733;DHT22;9495;51.210;2.934;2022-09-09T07:51:33;20.30;99.90
18733;DHT22;9495;51.210;2.934;2022-09-09T07:54:04;20.20;99.90
18733;DHT22;9495;51.210;2.934;2022-09-09T07:56:33;20.30;99.90
18733;DHT22;9495;51.210;2.934;2022-09-09T07:59:02;20.20;99.90
18733;DHT22;9495;51.210;2.934;2022-09-09T08:01:34;20.10;99.90
18733;DHT22;9495;51.210;2.934;2022-09-09T08:04:06;20.20;99.90
18733;DHT22;9495;51.210;2.934;2022-09-09T08:06:38;20.10;99.90
18733;DHT22;9495;51.210;2.934;2022-09-09T08:09:08;20.30;99.90
18733;DHT22;9495;51.210;2.934;2022-09-09T08:11:38;20.60;99.90
18733;DHT22;9495;51.210;2.934;2022-09-09T08:14:07;20.50;99.90
18733;DHT22;9495;51.210;2.934;2022-09-09T08:16:38;20.70;99.90
18733;DHT22;9495;51.210;2.934;2022-09-09T08:19:07;20.60;99.90
18733;DHT22;9495;51.210;2.934;2022-09-09T08:21:37;20.80;99.90
18733;DHT22;9495;51.210;2.934;2022-09-09T08:24:09;20.60;99.90
18733;DHT22;9495;51.210;2.934;2022-09-09T08:26:40;20.80;99.90
18733;DHT22;9495;51.210;2.934;2022-09-09T08:29:11;20.90;99.90
18733;DHT22;9495;51.210;2.934;2022-09-09T08:31:42;20.80;99.90
18733;DHT22;9495;51.210;2.934;2022-09-09T08:34:10;20.60;99.90
18733;DHT22;9495;51.210;2.934;2022-09-09T08:36:40;20.60;99.90
18733;DHT22;9495;51.210;2.934;2022-09-09T08:39:12;20.50;99.90
18733;DHT22;9495;51.210;2.934;2022-09-09T08:42:04;20.70;99.90
18733;DHT22;9495;51.210;2.934;2022-09-09T08:44:44;20.70;99.90
18733;DHT22;9495;51.210;2.934;2022-09-09T08:47:22;20.80;99.90
18733;DHT22;9495;51.210;2.934;2022-09-09T08:50:07;20.80;99.90
18733;DHT22;9495;51.210;2.934;2022-09-09T08:52:49;21.00;99.90
18733;DHT22;9495;51.210;2.934;2022-09-09T08:55:32;21.10;99.90
18733;DHT22;9495;51.210;2.934;2022-09-09T08:58:09;21.10;99.90
18733;DHT22;9495;51.210;2.934;2022-09-09T09:03:36;20.80;99.90
18733;DHT22;9495;51.210;2.934;2022-09-09T09:06:19;20.80;99.90
18733;DHT22;9495;51.210;2.934;2022-09-09T09:08:56;20.70;99.90
18733;DHT22;9495;51.210;2.934;2022-09-09T09:11:35;21.10;99.90
18733;DHT22;9495;51.210;2.934;2022-09-09T09:14:09;21.10;99.90
18733;DHT22;9495;51.210;2.934;2022-09-09T09:16:43;21.10;99.90
18733;DHT22;9495;51.210;2.934;2022-09-09T09:19:16;21.10;99.90
18733;DHT22;9495;51.210;2.934;2022-09-09T09:21:48;21.10;99.90
18733;DHT22;9495;51.210;2.934;2022-09-09T09:24:19;20.90;99.90
18733;DHT22;9495;51.210;2.934;2022-09-09T09:26:50;21.00;99.90
18733;DHT22;9495;51.210;2.934;2022-09-09T09:29:21;20.70;99.90
18733;DHT22;9495;51.210;2.934;2022-09-09T09:31:52;20.60;99.90
18733;DHT22;9495;51.210;2.934;2022-09-09T09:34:21;20.80;99.90
18733;DHT22;9495;51.210;2.934;2022-09-09T09:36:56;21.00;99.90
18733;DHT22;9495;51.210;2.934;2022-09-09T09:39:27;20.80;99.90
18733;DHT22;9495;51.210;2.934;2022-09-09T09:42:18;21.00;99.90
18733;DHT22;9495;51.210;2.934;2022-09-09T09:44:49;20.80;99.90
18733;DHT22;9495;51.210;2.934;2022-09-09T09:47:19;20.70;99.90
18733;DHT22;9495;51.210;2.934;2022-09-09T09:49:55;21.00;99.90
18733;DHT22;9495;51.210;2.934;2022-09-09T09:52:25;20.90;99.90
18733;DHT22;9495;51.210;2.934;2022-09-09T09:54:54;21.00;99.90
18733;DHT22;9495;51.210;2.934;2022-09-09T09:57:26;21.10;99.90
18733;DHT22;9495;51.210;2.934;2022-09-09T10:00:04;20.90;99.90
18733;DHT22;9495;51.210;2.934;2022-09-09T10:02:41;20.90;99.90
18733;DHT22;9495;51.210;2.934;2022-09-09T10:05:14;20.50;99.90
18733;DHT22;9495;51.210;2.934;2022-09-09T10:07:43;19.50;99.90
18733;DHT22;9495;51.210;2.934;2022-09-09T10:10:16;19.30;99.90
18733;DHT22;9495;51.210;2.934;2022-09-09T10:12:57;19.40;99.90
18733;DHT22;9495;51.210;2.934;2022-09-09T10:15:36;19.80;99.90
18733;DHT22;9495;51.210;2.934;2022-09-09T10:18:34;19.70;99.90
18733;DHT22;9495;51.210;2.934;2022-09-09T10:21:11;19.40;99.90
18733;DHT22;9495;51.210;2.934;2022-09-09T10:23:51;19.80;99.90
18733;DHT22;9495;51.210;2.934;2022-09-09T10:26:34;20.10;99.90
18733;DHT22;9495;51.210;2.934;2022-09-09T10:29:29;20.40;99.90
18733;DHT22;9495;51.210;2.934;2022-09-09T10:32:08;20.30;99.90
18733;DHT22;9495;51.210;2.934;2022-09-09T10:34:55;19.90;99.90
18733;DHT22;9495;51.210;2.934;2022-09-09T10:37:49;19.10;99.90
18733;DHT22;9495;51.210;2.934;2022-09-09T10:40:31;19.10;99.90
18733;DHT22;9495;51.210;2.934;2022-09-09T10:43:07;18.80;99.90
18733;DHT22;9495;51.210;2.934;2022-09-09T10:45:46;19.00;99.90
18733;DHT22;9495;51.210;2.934;2022-09-09T10:48:31;19.00;99.90
18733;DHT22;9495;51.210;2.934;2022-09-09T10:51:10;19.10;99.90
18733;DHT22;9495;51.210;2.934;2022-09-09T10:53:51;19.30;99.90
18733;DHT22;9495;51.210;2.934;2022-09-09T10:56:23;19.40;99.90
18733;DHT22;9495;51.210;2.934;2022-09-09T10:58:54;19.80;99.90
18733;DHT22;9495;51.210;2.934;2022-09-09T11:01:31;19.90;99.90
18733;DHT22;9495;51.210;2.934;2022-09-09T11:04:05;19.70;99.90
18733;DHT22;9495;51.210;2.934;2022-09-09T11:06:39;19.50;99.90
18733;DHT22;9495;51.210;2.934;2022-09-09T11:09:15;19.40;99.90
18733;DHT22;9495;51.210;2.934;2022-09-09T11:11:47;19.50;99.90
18733;DHT22;9495;51.210;2.934;2022-09-09T11:14:22;19.90;99.90
18733;DHT22;9495;51.210;2.934;2022-09-09T11:16:57;20.30;99.90
18733;DHT22;9495;51.210;2.934;2022-09-09T11:19:32;20.40;99.90
18733;DHT22;9495;51.210;2.934;2022-09-09T11:22:03;20.40;99.90
18733;DHT22;9495;51.210;2.934;2022-09-09T11:24:36;20.40;99.90
18733;DHT22;9495;51.210;2.934;2022-09-09T11:27:10;20.60;99.90
18733;DHT22;9495;51.210;2.934;2022-09-09T11:30:12;20.50;99.90
18733;DHT22;9495;51.210;2.934;2022-09-09T11:33:18;20.70;99.90
18733;DHT22;9495;51.210;2.934;2022-09-09T11:36:10;20.20;99.90
18733;DHT22;9495;51.210;2.934;2022-09-09T11:38:45;20.30;99.90
18733;DHT22;9495;51.210;2.934;2022-09-09T11:41:15;20.70;99.90
18733;DHT22;9495;51.210;2.934;2022-09-09T11:43:49;20.00;99.90
18733;DHT22;9495;51.210;2.934;2022-09-09T11:46:20;19.50;99.90
18733;DHT22;9495;51.210;2.934;2022-09-09T11:49:00;19.30;99.90
18733;DHT22;9495;51.210;2.934;2022-09-09T11:51:30;19.20;99.90
18733;DHT22;9495;51.210;2.934;2022-09-09T11:53:59;19.00;99.90
18733;DHT22;9495;51.210;2.934;2022-09-09T11:56:30;19.10;99.90
18733;DHT22;9495;51.210;2.934;2022-09-09T11:59:03;18.90;99.90
18733;DHT22;9495;51.210;2.934;2022-09-09T12:01:39;19.10;99.90
18733;DHT22;9495;51.210;2.934;2022-09-09T12:07:03;19.00;99.90
18733;DHT22;9495;51.210;2.934;2022-09-09T12:09:43;18.80;99.90
18733;DHT22;9495;51.210;2.934;2022-09-09T12:12:23;18.80;99.90
18733;DHT22;9495;51.210;2.934;2022-09-09T12:14:58;19.00;99.90
18733;DHT22;9495;51.210;2.934;2022-09-09T12:17:28;18.80;99.90
18733;DHT22;9495;51.210;2.934;2022-09-09T12:20:04;18.90;99.90
18733;DHT22;9495;51.210;2.934;2022-09-09T12:22:44;18.30;99.90
18733;DHT22;9495;51.210;2.934;2022-09-09T12:25:21;18.40;99.90
18733;DHT22;9495;51.210;2.934;2022-09-09T12:28:01;18.30;99.90
18733;DHT22;9495;51.210;2.934;2022-09-09T12:30:35;18.00;99.90
18733;DHT22;9495;51.210;2.934;2022-09-09T12:33:11;18.20;99.90
18733;DHT22;9495;51.210;2.934;2022-09-09T12:35:44;18.40;99.90
18733;DHT22;9495;51.210;2.934;2022-09-09T12:38:17;18.80;99.90
18733;DHT22;9495;51.210;2.934;2022-09-09T12:40:55;19.10;99.90
18733;DHT22;9495;51.210;2.934;2022-09-09T12:43:25;19.50;99.90
18733;DHT22;9495;51.210;2.934;2022-09-09T12:45:57;19.40;99.90
18733;DHT22;9495;51.210;2.934;2022-09-09T12:48:32;19.10;99.90
18733;DHT22;9495;51.210;2.934;2022-09-09T12:51:04;18.80;99.90
18733;DHT22;9495;51.210;2.934;2022-09-09T12:53:35;18.80;99.90
18733;DHT22;9495;51.210;2.934;2022-09-09T12:56:05;18.90;99.90
18733;DHT22;9495;51.210;2.934;2022-09-09T12:58:36;18.80;99.90
18733;DHT22;9495;51.210;2.934;2022-09-09T13:01:06;19.10;99.90
18733;DHT22;9495;51.210;2.934;2022-09-09T13:03:46;18.90;99.90
18733;DHT22;9495;51.210;2.934;2022-09-09T13:06:20;19.30;99.90
18733;DHT22;9495;51.210;2.934;2022-09-09T13:08:56;19.30;99.90
18733;DHT22;9495;51.210;2.934;2022-09-09T13:11:27;19.30;99.90
18733;DHT22;9495;51.210;2.934;2022-09-09T13:13:57;19.40;99.90
18733;DHT22;9495;51.210;2.934;2022-09-09T13:16:27;19.30;99.90
18733;DHT22;9495;51.210;2.934;2022-09-09T13:19:01;19.30;99.90
18733;DHT22;9495;51.210;2.934;2022-09-09T13:21:36;19.10;99.90
18733;DHT22;9495;51.210;2.934;2022-09-09T13:24:05;18.90;99.90
18733;DHT22;9495;51.210;2.934;2022-09-09T13:26:37;18.90;99.90
18733;DHT22;9495;51.210;2.934;2022-09-09T13:29:16;18.80;99.90
18733;DHT22;9495;51.210;2.934;2022-09-09T13:31:48;18.90;99.90
18733;DHT22;9495;51.210;2.934;2022-09-09T13:34:30;18.70;99.90
18733;DHT22;9495;51.210;2.934;2022-09-09T13:37:02;18.60;99.90
18733;DHT22;9495;51.210;2.934;2022-09-09T13:39:34;19.00;99.90
18733;DHT22;9495;51.210;2.934;2022-09-09T13:42:04;19.10;99.90
18733;DHT22;9495;51.210;2.934;2022-09-09T13:44:38;19.00;99.90
18733;DHT22;9495;51.210;2.934;2022-09-09T13:47:17;18.80;99.90
18733;DHT22;9495;51.210;2.934;2022-09-09T13:49:47;18.60;99.90
18733;DHT22;9495;51.210;2.934;2022-09-09T13:52:18;18.60;99.90
18733;DHT22;9495;51.210;2.934;2022-09-09T13:54:47;18.50;99.90
18733;DHT22;9495;51.210;2.934;2022-09-09T13:57:17;18.70;99.90
18733;DHT22;9495;51.210;2.934;2022-09-09T13:59:46;19.00;99.90
18733;DHT22;9495;51.210;2.934;2022-09-09T14:02:32;19.10;99.90
18733;DHT22;9495;51.210;2.934;2022-09-09T14:05:00;19.10;99.90
18733;DHT22;9495;51.210;2.934;2022-09-09T14:07:31;18.90;99.90
18733;DHT22;9495;51.210;2.934;2022-09-09T14:09:59;19.10;99.90
18733;DHT22;9495;51.210;2.934;2022-09-09T14:12:27;19.00;99.90
18733;DHT22;9495;51.210;2.934;2022-09-09T14:14:56;19.20;99.90
18733;DHT22;9495;51.210;2.934;2022-09-09T14:17:24;19.20;99.90
18733;DHT22;9495;51.210;2.934;2022-09-09T14:19:56;19.00;99.90
18733;DHT22;9495;51.210;2.934;2022-09-09T14:22:24;19.20;99.90
18733;DHT22;9495;51.210;2.934;2022-09-09T14:24:54;19.30;99.90
18733;DHT22;9495;51.210;2.934;2022-09-09T14:27:24;19.50;99.90
18733;DHT22;9495;51.210;2.934;2022-09-09T14:29:54;19.40;99.90
18733;DHT22;9495;51.210;2.934;2022-09-09T14:32:22;19.60;99.90
18733;DHT22;9495;51.210;2.934;2022-09-09T14:34:50;19.40;99.90
18733;DHT22;9495;51.210;2.934;2022-09-09T14:37:19;19.30;99.90
18733;DHT22;9495;51.210;2.934;2022-09-09T14:39:47;19.60;99.90
18733;DHT22;9495;51.210;2.934;2022-09-09T14:42:18;19.60;99.90
18733;DHT22;9495;51.210;2.934;2022-09-09T14:44:47;19.60;99.90
18733;DHT22;9495;51.210;2.934;2022-09-09T14:47:16;19.60;99.90
18733;DHT22;9495;51.210;2.934;2022-09-09T14:49:44;19.80;99.90
18733;DHT22;9495;51.210;2.934;2022-09-09T14:52:13;19.70;99.90
18733;DHT22;9495;51.210;2.934;2022-09-09T14:54:42;19.70;99.90
18733;DHT22;9495;51.210;2.934;2022-09-09T14:57:10;20.00;99.90
18733;DHT22;9495;51.210;2.934;2022-09-09T14:59:40;20.10;99.90
18733;DHT22;9495;51.210;2.934;2022-09-09T15:02:10;19.90;99.90
18733;DHT22;9495;51.210;2.934;2022-09-09T15:04:41;19.70;99.90
18733;DHT22;9495;51.210;2.934;2022-09-09T15:07:09;19.80;99.90
18733;DHT22;9495;51.210;2.934;2022-09-09T15:09:38;20.10;99.90
18733;DHT22;9495;51.210;2.934;2022-09-09T15:12:06;20.10;99.90
18733;DHT22;9495;51.210;2.934;2022-09-09T15:14:35;20.30;99.90
18733;DHT22;9495;51.210;2.934;2022-09-09T15:17:05;20.60;99.90
18733;DHT22;9495;51.210;2.934;2022-09-09T15:19:33;20.50;99.90
18733;DHT22;9495;51.210;2.934;2022-09-09T15:22:01;20.50;99.90
18733;DHT22;9495;51.210;2.934;2022-09-09T15:24:30;20.30;99.90
18733;DHT22;9495;51.210;2.934;2022-09-09T15:26:59;20.30;99.90
18733;DHT22;9495;51.210;2.934;2022-09-09T15:29:28;20.20;99.90
18733;DHT22;9495;51.210;2.934;2022-09-09T15:31:56;20.00;99.90
18733;DHT22;9495;51.210;2.934;2022-09-09T15:34:25;20.30;99.90
18733;DHT22;9495;51.210;2.934;2022-09-09T15:36:54;20.50;99.90
18733;DHT22;9495;51.210;2.934;2022-09-09T15:39:22;20.40;99.90
18733;DHT22;9495;51.210;2.934;2022-09-09T15:41:51;20.40;99.90
18733;DHT22;9495;51.210;2.934;2022-09-09T15:44:19;20.30;99.90
18733;DHT22;9495;51.210;2.934;2022-09-09T15:46:49;20.20;99.90
18733;DHT22;9495;51.210;2.934;2022-09-09T15:49:19;20.40;99.90
18733;DHT22;9495;51.210;2.934;2022-09-09T15:51:53;20.30;99.90
18733;DHT22;9495;51.210;2.934;2022-09-09T15:54:23;20.30;99.90
18733;DHT22;9495;51.210;2.934;2022-09-09T15:56:53;20.30;99.90
18733;DHT22;9495;51.210;2.934;2022-09-09T15:59:22;20.50;99.90
18733;DHT22;9495;51.210;2.934;2022-09-09T16:01:51;20.30;99.90
18733;DHT22;9495;51.210;2.934;2022-09-09T16:04:20;20.20;99.90
18733;DHT22;9495;51.210;2.934;2022-09-09T16:06:54;20.30;99.90
18733;DHT22;9495;51.210;2.934;2022-09-09T16:09:22;20.40;99.90
18733;DHT22;9495;51.210;2.934;2022-09-09T16:11:50;20.50;99.90
18733;DHT22;9495;51.210;2.934;2022-09-09T16:14:20;20.40;99.90
18733;DHT22;9495;51.210;2.934;2022-09-09T16:16:49;20.50;99.90
18733;DHT22;9495;51.210;2.934;2022-09-09T16:19:17;20.40;99.90
18733;DHT22;9495;51.210;2.934;2022-09-09T16:21:47;20.30;99.90
18733;DHT22;9495;51.210;2.934;2022-09-09T16:24:19;20.30;99.90